Akiak, AK (99552)

12:56 AM AKDT on September 23, 2014 (GMT -0800)
Kwethluk AP, Kwethluk, AK | Change Station
CLOSE
Current Station
Airport
Location: Kwethluk AP, Kwethluk, AK,
Elevation: 26 ft
Nearby Weather Stations

Elev 26 ft 60.79 °N, 161.44 °W | Updated 1 hour ago

Overcast
Overcast
37 °F
Feels Like 32 °F
N
7
Wind Variable Wind from SSW

Today
High -- | Low -- °F
--% Chance of Precip.
Yesterday
High -- | Low -- °F
Precip. -- in
8:31 AM 8:40 PM
Waning Crescent, 1% visible
Pressure 29.93 in
Visibility 10.0 miles
Clouds Overcast 4900 ft
Windchill 32 °F
Dew Point 35 °F
Humidity 93%
Rainfall 0.00 in
Snow Depth Not available.
UV 0 out of 12
Pollen Not available.
Air Quality Not available.
Flu Activity Not available.
METAR PFKW 230756Z AUTO 21006KT 10SM OVC049 03/02 A2992 RMK AO2 SLP133 T00280017 $

More Conditions Fewer Conditions

Pressure 29.93 in
Visibility 10.0 miles
Clouds Overcast 4900 ft
Windchill 32 °F
Dew Point 35 °F
Humidity 93%
Rainfall 0.00 in
Snow Depth Not available.
UV 0 out of 12
Pollen Not available.
Air Quality Not available.
Flu Activity Not available.
METAR PFKW 230756Z AUTO 21006KT 10SM OVC049 03/02 A2992 RMK AO2 SLP133 T00280017 $

More Conditions Fewer Conditions

10-Day Weather Forecast

Almanac

Astronomy

Sep. 23, 2014 Rise Set
Actual Time 8:31 AM AKDT 8:40 PM AKDT
Civil Twilight 7:49 AM AKDT 9:23 PM AKDT
Nautical Twilight 6:57 AM AKDT 10:14 PM AKDT
Astronomical Twilight 6:01 AM AKDT 11:10 PM AKDT
Moon 8:07 AM AKDT 8:18 PM AKDT
Length of Visible Light 13h 34m
Length of Day
12h 08m
Tomorrow will be 5m 35s shorter.
Waning Crescent, 1% of the Moon is Illuminated
Today
Waning Crescent
Sep 24
New
Oct 1
First Quarter
Oct 8
Full
Oct 15
Last Quarter

Today's Extremes

State Highs State Lows

Community

WunderPhotos

Upload Photos

1,755,644 photos uploaded!

Nearby

Snow Depth

Station Depth Elevation
Mcneil Canyon 1 in 1320 ft
Grandview 0 in 1100 ft
Nuka Glacier 164 in 1250 ft
Indian Pass 2 in 2300 ft
Port Graham 0 in 300 ft

Earthquake Activity

City Distance Mag. Time & Date
No recent earthquake activity has been reported nearby.
Minimum magnitude displayed is 2.5.

Coastal Water Temperatures

Place Temperature
No Stations Reporting

Nearby Weather Stations